createdAt,value
2023-05-13T00:02:46.908Z,100494.81
2023-05-13T00:07:50.017Z,100485.50
2023-05-13T00:12:53.008Z,100497.47
2023-05-13T00:17:56.776Z,100495.81
2023-05-13T00:23:00.402Z,100500.81
2023-05-13T00:28:04.172Z,100495.34
2023-05-13T00:33:08.203Z,100490.88
2023-05-13T00:38:11.223Z,100493.69
2023-05-13T00:43:14.195Z,100501.50
2023-05-13T00:48:17.572Z,100499.00
2023-05-13T00:53:20.415Z,100504.47
2023-05-13T00:58:23.359Z,100504.22
2023-05-13T01:03:40.365Z,100501.91
2023-05-13T01:09:09.332Z,100506.22
2023-05-13T01:14:19.628Z,100507.53
2023-05-13T01:19:49.753Z,100511.34
2023-05-13T01:24:52.899Z,100512.31
2023-05-13T01:29:56.884Z,100504.38
2023-05-13T01:35:01.523Z,100520.97
2023-05-13T01:40:20.494Z,100522.28
2023-05-13T01:45:33.538Z,100515.59
2023-05-13T01:50:36.738Z,100511.22
2023-05-13T01:55:39.818Z,100526.47
2023-05-13T02:00:42.922Z,100523.78
2023-05-13T02:05:48.354Z,100528.75
2023-05-13T02:10:59.156Z,100530.75
2023-05-13T02:16:03.374Z,100526.44
2023-05-13T02:21:06.674Z,100524.44
2023-05-13T02:26:09.646Z,100523.06
2023-05-13T02:31:12.731Z,100526.72
2023-05-13T02:36:16.176Z,100520.38
2023-05-13T02:41:20.402Z,100524.03
2023-05-13T02:46:23.634Z,100524.31
2023-05-13T02:51:26.725Z,100527.97
2023-05-13T02:56:29.706Z,100528.56
2023-05-13T03:01:32.787Z,100533.34
2023-05-13T03:06:36.061Z,100528.13
2023-05-13T03:11:39.043Z,100519.78
2023-05-13T03:16:45.150Z,100534.44
2023-05-13T03:21:48.012Z,100528.13
2023-05-13T03:26:51.106Z,100537.91
2023-05-13T03:31:54.339Z,100542.69
2023-05-13T03:36:57.300Z,100549.41
2023-05-13T03:42:00.346Z,100551.56
2023-05-13T03:47:04.214Z,100552.00
2023-05-13T03:52:10.064Z,100560.13
2023-05-13T03:57:13.157Z,100564.88
2023-05-13T04:02:16.252Z,100567.53
2023-05-13T04:07:19.373Z,100579.63
2023-05-13T04:12:22.466Z,100580.34
2023-05-13T04:17:25.710Z,100579.50
2023-05-13T04:22:28.600Z,100579.34
2023-05-13T04:27:31.575Z,100594.13
2023-05-13T04:32:34.882Z,100595.34
2023-05-13T04:37:38.565Z,100598.81
2023-05-13T04:42:41.379Z,100594.34
2023-05-13T04:47:44.402Z,100595.72
2023-05-13T04:52:47.678Z,100604.06
2023-05-13T04:57:50.844Z,100605.44
2023-05-13T05:02:53.712Z,100612.09
2023-05-13T05:07:56.623Z,100603.19
2023-05-13T05:13:00.081Z,100603.19
2023-05-13T05:18:03.068Z,100617.34
2023-05-13T05:23:07.206Z,100623.31
2023-05-13T05:28:10.413Z,100620.00
2023-05-13T05:33:13.504Z,100623.19
2023-05-13T05:38:16.391Z,100625.53
2023-05-13T05:43:19.598Z,100620.81
2023-05-13T05:48:23.037Z,100626.97
2023-05-13T05:53:26.390Z,100627.66
2023-05-13T05:58:29.695Z,100622.66
2023-05-13T06:03:32.884Z,100627.81
2023-05-13T06:08:36.090Z,100623.53
2023-05-13T06:13:39.156Z,100626.94
2023-05-13T06:18:43.195Z,100634.09
2023-05-13T06:23:46.659Z,100637.03
2023-05-13T06:28:49.623Z,100649.59
2023-05-13T06:33:52.811Z,100650.34
2023-05-13T06:38:55.654Z,100656.94
2023-05-13T06:43:58.685Z,100661.56
2023-05-13T06:49:01.613Z,100661.84
2023-05-13T06:54:04.710Z,100660.06
2023-05-13T06:59:07.706Z,100656.25
2023-05-13T07:04:10.671Z,100659.50
2023-05-13T07:09:14.821Z,100658.13
2023-05-13T07:14:18.013Z,100664.66
2023-05-13T07:19:20.955Z,100660.19
2023-05-13T07:24:24.276Z,100656.53
2023-05-13T07:29:27.742Z,100663.66
2023-05-13T07:34:31.394Z,100661.56
2023-05-13T07:39:34.246Z,100664.22
2023-05-13T07:44:37.338Z,100666.56
2023-05-13T07:49:40.813Z,100670.97
2023-05-13T07:54:43.873Z,100670.00
2023-05-13T07:59:46.674Z,100677.75
2023-05-13T08:04:49.540Z,100686.38
2023-05-13T08:09:52.622Z,100689.34
2023-05-13T08:14:55.526Z,100688.69
2023-05-13T08:20:00.003Z,100697.00
2023-05-13T08:25:03.574Z,100705.94
2023-05-13T08:30:07.646Z,100696.75
2023-05-13T08:35:10.472Z,100716.31
2023-05-13T08:40:13.720Z,100722.28
2023-05-13T08:45:21.422Z,100715.88
2023-05-13T08:50:26.239Z,100722.00
2023-05-13T08:55:29.416Z,100716.13
2023-05-13T09:00:34.764Z,100728.03
2023-05-13T09:05:38.912Z,100716.81
2023-05-13T09:10:42.556Z,100708.41
2023-05-13T09:15:45.923Z,100710.91
2023-05-13T09:20:49.066Z,100713.78
2023-05-13T09:25:52.001Z,100718.81
2023-05-13T09:30:57.329Z,100713.34
2023-05-13T09:36:00.526Z,100714.19
2023-05-13T09:41:03.927Z,100720.56
2023-05-13T09:46:10.314Z,100713.50
2023-05-13T09:51:16.147Z,100716.94
2023-05-13T09:56:24.143Z,100716.88
2023-05-13T10:01:28.637Z,100708.50
2023-05-13T10:06:32.172Z,100704.13
2023-05-13T10:11:36.691Z,100709.94
2023-05-13T10:16:39.719Z,100706.03
2023-05-13T10:21:43.233Z,100704.69
2023-05-13T10:26:48.303Z,100692.28
2023-05-13T10:31:52.121Z,100695.81
2023-05-13T10:37:18.085Z,100700.69
2023-05-13T10:42:40.795Z,100688.09
2023-05-13T10:47:43.878Z,100687.19
2023-05-13T10:52:47.967Z,100692.78
2023-05-13T10:58:12.354Z,100690.75
2023-05-13T11:03:29.541Z,100689.28
2023-05-13T11:08:48.289Z,100687.13
2023-05-13T11:14:03.127Z,100693.25
2023-05-13T11:19:21.955Z,100690.94
2023-05-13T11:24:27.267Z,100693.25
2023-05-13T11:29:34.311Z,100688.94
2023-05-13T11:34:37.751Z,100680.59
2023-05-13T11:39:42.006Z,100685.91
2023-05-13T11:44:47.148Z,100682.94
2023-05-13T11:49:51.527Z,100689.13
2023-05-13T11:54:57.758Z,100688.09
2023-05-13T12:00:06.705Z,100679.91
2023-05-13T12:05:17.969Z,100671.91
2023-05-13T12:10:21.492Z,100674.25
2023-05-13T12:15:24.813Z,100683.25
2023-05-13T12:20:28.197Z,100673.28
2023-05-13T12:25:43.160Z,100682.28
2023-05-13T12:30:56.751Z,100692.59
2023-05-13T12:36:23.279Z,100686.63
2023-05-13T12:41:35.068Z,100692.25
2023-05-13T12:46:38.224Z,100699.09
2023-05-13T12:51:41.101Z,100686.63
2023-05-13T12:56:44.835Z,100692.78
2023-05-13T13:01:50.333Z,100691.59
2023-05-13T13:06:53.736Z,100695.75
2023-05-13T13:11:56.480Z,100688.91
2023-05-13T13:16:59.457Z,100682.25
2023-05-13T13:22:02.893Z,100688.91
2023-05-13T13:27:05.985Z,100678.22
2023-05-13T13:32:09.185Z,100686.22
2023-05-13T13:37:11.948Z,100675.75
2023-05-13T13:42:14.779Z,100670.22
2023-05-13T13:47:17.624Z,100675.22
2023-05-13T13:52:22.365Z,100675.53
2023-05-13T13:57:25.791Z,100677.16
2023-05-13T14:02:28.878Z,100676.47
2023-05-13T14:07:31.966Z,100668.31
2023-05-13T14:12:36.520Z,100668.31
2023-05-13T14:17:39.700Z,100664.81
2023-05-13T14:22:42.642Z,100658.47
2023-05-13T14:27:45.539Z,100646.78
2023-05-13T14:32:48.461Z,100641.59
2023-05-13T14:37:51.567Z,100639.72
2023-05-13T14:42:54.547Z,100629.38
2023-05-13T14:47:57.417Z,100631.84
2023-05-13T14:53:00.490Z,100627.97
2023-05-13T14:58:03.736Z,100625.31
2023-05-13T15:03:06.683Z,100635.16
2023-05-13T15:08:09.907Z,100630.13
2023-05-13T15:13:12.654Z,100627.25
2023-05-13T15:18:15.760Z,100637.94
2023-05-13T15:23:18.756Z,100625.31
2023-05-13T15:28:21.862Z,100634.50
2023-05-13T15:33:26.792Z,100631.06
2023-05-13T15:38:29.652Z,100638.88
2023-05-13T15:43:32.747Z,100636.72
2023-05-13T15:48:36.610Z,100638.75
2023-05-13T15:53:39.719Z,100636.09
2023-05-13T15:58:43.236Z,100622.72
2023-05-13T16:03:46.321Z,100626.06
2023-05-13T16:08:49.131Z,100640.13
2023-05-13T16:13:52.612Z,100646.78
2023-05-13T16:18:55.702Z,100651.81
2023-05-13T16:23:58.536Z,100638.00
2023-05-13T16:29:01.547Z,100630.81
2023-05-13T16:34:04.456Z,100629.13
2023-05-13T16:39:07.700Z,100623.47
2023-05-13T16:44:11.359Z,100619.47
2023-05-13T16:49:14.381Z,100614.97
2023-05-13T16:54:17.386Z,100617.25
2023-05-13T16:59:22.553Z,100613.13
2023-05-13T17:04:26.749Z,100610.63
2023-05-13T17:09:30.938Z,100607.78
2023-05-13T17:14:33.928Z,100612.94
2023-05-13T17:19:37.039Z,100616.63
2023-05-13T17:24:40.588Z,100629.94
2023-05-13T17:29:43.532Z,100634.47
2023-05-13T17:34:46.359Z,100629.13
2023-05-13T17:39:50.337Z,100614.00
2023-05-13T17:44:54.621Z,100609.16
2023-05-13T17:49:57.765Z,100612.84
2023-05-13T17:55:00.964Z,100614.19
2023-05-13T18:00:06.957Z,100623.06
2023-05-13T18:05:15.031Z,100617.22
2023-05-13T18:10:17.995Z,100619.91
2023-05-13T18:15:21.426Z,100626.94
2023-05-13T18:20:24.481Z,100627.78
2023-05-13T18:25:27.817Z,100616.63
2023-05-13T18:30:31.687Z,100608.31
2023-05-13T18:35:34.916Z,100620.66
2023-05-13T18:40:37.687Z,100634.66
2023-05-13T18:45:40.810Z,100634.00
2023-05-13T18:50:43.889Z,100641.66
2023-05-13T18:55:46.773Z,100641.50
2023-05-13T19:00:49.784Z,100648.63
2023-05-13T19:05:53.524Z,100648.63
2023-05-13T19:10:56.710Z,100652.31
2023-05-13T19:16:00.546Z,100644.59
2023-05-13T19:21:04.012Z,100660.06
2023-05-13T19:26:06.967Z,100657.38
2023-05-13T19:31:10.957Z,100658.03
2023-05-13T19:36:14.334Z,100659.00
2023-05-13T19:41:17.350Z,100661.31
2023-05-13T19:46:20.343Z,100667.28
2023-05-13T19:51:23.117Z,100670.09
2023-05-13T19:56:26.369Z,100661.63
2023-05-13T20:01:31.983Z,100652.78
2023-05-13T20:06:35.524Z,100651.47
2023-05-13T20:11:38.438Z,100656.75
2023-05-13T20:16:41.675Z,100644.59
2023-05-13T20:21:45.024Z,100645.34
2023-05-13T20:26:48.091Z,100649.28
2023-05-13T20:31:51.095Z,100655.41
2023-05-13T20:36:54.070Z,100648.22
2023-05-13T20:41:57.362Z,100648.16
2023-05-13T20:47:00.324Z,100648.44
2023-05-13T20:52:03.992Z,100648.38
2023-05-13T20:57:07.369Z,100637.34
2023-05-13T21:02:12.154Z,100638.91
2023-05-13T21:07:15.266Z,100647.63
2023-05-13T21:12:18.221Z,100654.88
2023-05-13T21:17:24.727Z,100649.34
2023-05-13T21:22:27.825Z,100638.13
2023-05-13T21:27:30.814Z,100631.75
2023-05-13T21:32:33.944Z,100635.97
2023-05-13T21:37:36.812Z,100637.41
2023-05-13T21:42:39.623Z,100639.94
2023-05-13T21:47:42.678Z,100633.81
2023-05-13T21:52:45.738Z,100622.38
2023-05-13T21:57:49.394Z,100618.19
2023-05-13T22:02:53.069Z,100626.81
2023-05-13T22:07:56.105Z,100616.19
2023-05-13T22:12:59.104Z,100614.53
2023-05-13T22:18:02.130Z,100613.53
2023-05-13T22:23:06.508Z,100618.72
2023-05-13T22:28:09.259Z,100618.41
2023-05-13T22:33:12.288Z,100613.25
2023-05-13T22:38:15.230Z,100603.91
2023-05-13T22:43:18.278Z,100609.75
2023-05-13T22:48:21.263Z,100621.22
2023-05-13T22:53:25.326Z,100611.44
2023-05-13T22:58:28.310Z,100616.56
2023-05-13T23:03:31.390Z,100599.16
2023-05-13T23:08:34.424Z,100596.66
2023-05-13T23:13:37.615Z,100596.34
2023-05-13T23:18:40.762Z,100586.56
2023-05-13T23:23:43.770Z,100593.22
2023-05-13T23:28:46.740Z,100595.72
2023-05-13T23:33:50.011Z,100577.97
2023-05-13T23:38:52.980Z,100579.13
2023-05-13T23:43:55.938Z,100582.16
2023-05-13T23:48:58.653Z,100582.28
2023-05-13T23:54:01.594Z,100572.38
2023-05-13T23:59:05.142Z,100564.41
